Time;durP1;ratioP1;P1;durP2;ratioP2;P2;SDS_P1;SDS_P2;PMS_P1;PMS_P2;Temp;Humidity;BMP_temperature;BMP_pressure;BME280_temperature;BME280_humidity;BME280_pressure;Samples;Min_cycle;Max_cycle;Signal;HPM_P1;HPM_P2
2021/12/06 00:00:55;;;;;;;;;3.00;3.00;;;;;;;;5058034;28;46906;-85
2021/12/06 00:03:24;;;;;;;;;2.00;2.00;;;;;;;;5056375;28;45315;-85
2021/12/06 00:05:49;;;;;;;;;5.25;4.25;;;;;;;;5056589;28;45416;-85
2021/12/06 00:08:14;;;;;;;;;3.00;2.00;;;;;;;;5056401;28;45405;-85
2021/12/06 00:10:41;;;;;;;;;4.50;2.00;;;;;;;;5058426;28;46386;-86
2021/12/06 00:13:06;;;;;;;;;3.00;3.00;;;;;;;;5056000;28;45270;-85
2021/12/06 00:15:33;;;;;;;;;2.00;2.00;;;;;;;;5056346;28;45532;-84
2021/12/06 00:17:59;;;;;;;;;2.00;2.00;;;;;;;;5056064;28;45385;-86
2021/12/06 00:20:24;;;;;;;;;5.50;3.25;;;;;;;;5053867;28;45957;-84
2021/12/06 00:22:49;;;;;;;;;4.50;3.50;;;;;;;;5056387;28;45355;-85
2021/12/06 00:25:15;;;;;;;;;4.50;4.50;;;;;;;;5055285;28;45431;-85
2021/12/06 00:27:41;;;;;;;;;2.00;2.00;;;;;;;;5056076;28;45445;-85
2021/12/06 00:30:09;;;;;;;;;3.75;1.75;;;;;;;;5055526;28;45870;-85
2021/12/06 00:32:34;;;;;;;;;7.50;5.25;;;;;;;;5055602;28;45591;-83
2021/12/06 00:35:00;;;;;;;;;3.25;3.25;;;;;;;;5056341;28;45489;-84
2021/12/06 00:37:40;;;;;;;;;2.50;1.50;;;;;;;;5054991;28;45518;-84
2021/12/06 00:40:09;;;;;;;;;2.00;2.00;;;;;;;;5053448;28;46112;-85
2021/12/06 00:42:34;;;;;;;;;3.25;3.00;;;;;;;;5056252;28;45486;-85
2021/12/06 00:45:01;;;;;;;;;2.75;2.25;;;;;;;;5055445;28;45312;-85
2021/12/06 00:47:26;;;;;;;;;11.00;9.50;;;;;;;;5056062;28;45479;-83
2021/12/06 00:49:51;;;;;;;;;4.75;4.75;;;;;;;;5056222;28;46360;-85
2021/12/06 00:52:17;;;;;;;;;3.25;2.00;;;;;;;;5054784;28;45270;-85
2021/12/06 00:54:42;;;;;;;;;3.75;3.75;;;;;;;;5055390;28;45362;-85
2021/12/06 00:57:08;;;;;;;;;7.00;5.00;;;;;;;;5054470;28;45470;-85
2021/12/06 00:59:34;;;;;;;;;5.25;5.00;;;;;;;;5055781;28;47135;-84
2021/12/06 01:02:02;;;;;;;;;5.00;3.00;;;;;;;;5055149;28;45433;-84
2021/12/06 01:04:28;;;;;;;;;4.25;3.00;;;;;;;;5039012;28;45397;-84
2021/12/06 01:06:53;;;;;;;;;4.00;4.00;;;;;;;;5054025;28;45406;-85
2021/12/06 01:09:19;;;;;;;;;3.75;2.75;;;;;;;;5054762;28;46707;-85
2021/12/06 01:11:44;;;;;;;;;3.50;3.50;;;;;;;;5054476;28;45406;-85
2021/12/06 01:14:09;;;;;;;;;4.25;4.00;;;;;;;;5054444;28;45321;-85
2021/12/06 01:16:34;;;;;;;;;3.00;2.00;;;;;;;;5054743;28;45447;-84
2021/12/06 01:18:59;;;;;;;;;3.75;3.00;;;;;;;;5055952;28;46054;-84
2021/12/06 01:21:38;;;;;;;;;2.25;2.25;;;;;;;;5054776;28;45456;-84
2021/12/06 01:24:03;;;;;;;;;3.50;3.50;;;;;;;;5054591;28;45405;-85
2021/12/06 01:26:55;;;;;;;;;5.25;4.25;;;;;;;;5054263;28;45584;-83
2021/12/06 01:32:05;;;;;;;;;3.25;3.25;;;;;;;;5054444;28;45375;-85
2021/12/06 01:39:58;;;;;;;;;4.00;4.00;;;;;;;;5055098;28;45359;-86
2021/12/06 01:42:23;;;;;;;;;7.00;4.25;;;;;;;;5060488;28;45521;-85
2021/12/06 01:44:52;;;;;;;;;9.00;3.25;;;;;;;;5059986;28;45314;-85
2021/12/06 01:47:19;;;;;;;;;3.75;3.75;;;;;;;;5060008;28;45436;-84
2021/12/06 01:49:54;;;;;;;;;4.50;3.75;;;;;;;;5061419;28;47166;-85
2021/12/06 01:52:22;;;;;;;;;5.00;5.00;;;;;;;;5060481;28;45466;-86
2021/12/06 01:54:48;;;;;;;;;6.75;3.50;;;;;;;;5062034;28;45384;-84
2021/12/06 01:57:13;;;;;;;;;4.50;3.25;;;;;;;;5060612;28;45365;-84
2021/12/06 01:59:39;;;;;;;;;5.50;5.00;;;;;;;;5059326;28;47179;-85
2021/12/06 02:02:05;;;;;;;;;3.25;3.25;;;;;;;;5058243;28;45302;-85
2021/12/06 02:04:32;;;;;;;;;3.00;3.00;;;;;;;;5057931;28;45457;-85
2021/12/06 02:06:58;;;;;;;;;5.00;3.25;;;;;;;;5060046;28;45457;-85
2021/12/06 02:09:26;;;;;;;;;2.25;2.25;;;;;;;;5060280;28;46251;-86
2021/12/06 02:11:52;;;;;;;;;8.00;7.25;;;;;;;;5061004;28;45378;-86
2021/12/06 02:14:41;;;;;;;;;3.25;2.00;;;;;;;;5062315;28;45491;-85
2021/12/06 02:17:17;;;;;;;;;3.00;3.00;;;;;;;;5059581;28;45453;-84
2021/12/06 02:19:47;;;;;;;;;8.00;8.00;;;;;;;;5058688;28;46246;-84
2021/12/06 02:22:15;;;;;;;;;8.25;5.00;;;;;;;;5059967;28;45247;-85
2021/12/06 02:24:41;;;;;;;;;5.00;4.00;;;;;;;;5061580;28;45433;-85
2021/12/06 02:27:08;;;;;;;;;5.00;3.00;;;;;;;;5060057;28;45276;-86
2021/12/06 02:29:33;;;;;;;;;9.50;4.25;;;;;;;;5059550;28;46294;-85
2021/12/06 02:32:01;;;;;;;;;4.00;4.00;;;;;;;;5058912;28;45284;-85
2021/12/06 02:34:26;;;;;;;;;5.75;5.50;;;;;;;;5043421;28;45390;-85
2021/12/06 02:36:52;;;;;;;;;5.00;5.00;;;;;;;;5060195;28;45327;-85
2021/12/06 02:39:22;;;;;;;;;6.25;5.00;;;;;;;;5058209;28;46177;-85
2021/12/06 02:41:49;;;;;;;;;6.75;5.25;;;;;;;;5057931;28;45445;-85
2021/12/06 02:44:15;;;;;;;;;7.75;7.25;;;;;;;;5057751;28;45343;-84
2021/12/06 02:46:40;;;;;;;;;7.50;7.50;;;;;;;;5058638;28;45518;-85
2021/12/06 02:49:06;;;;;;;;;5.75;5.75;;;;;;;;5059813;28;46148;-84
2021/12/06 02:51:31;;;;;;;;;8.00;8.00;;;;;;;;5059511;28;45342;-84
2021/12/06 02:53:56;;;;;;;;;7.00;7.00;;;;;;;;5058510;28;45314;-84
2021/12/06 02:56:51;;;;;;;;;7.25;5.50;;;;;;;;5057499;28;45442;-85
2021/12/06 02:59:17;;;;;;;;;5.00;5.00;;;;;;;;5059150;28;47076;-84
2021/12/06 03:01:44;;;;;;;;;6.00;4.75;;;;;;;;5059220;28;45795;-85
2021/12/06 03:04:09;;;;;;;;;6.50;4.50;;;;;;;;5058106;28;45317;-84
2021/12/06 03:06:35;;;;;;;;;5.25;4.75;;;;;;;;5058978;28;45655;-84
2021/12/06 03:09:08;;;;;;;;;5.00;4.00;;;;;;;;5058754;28;46173;-84
2021/12/06 03:11:44;;;;;;;;;7.75;5.50;;;;;;;;5058649;28;45419;-84
2021/12/06 03:14:11;;;;;;;;;2.25;2.00;;;;;;;;5058378;28;45445;-84
2021/12/06 03:16:36;;;;;;;;;8.50;5.50;;;;;;;;5058226;28;45212;-84
2021/12/06 03:19:04;;;;;;;;;7.75;5.25;;;;;;;;5058821;28;46013;-84
2021/12/06 03:21:29;;;;;;;;;9.75;7.00;;;;;;;;5058174;28;45291;-84
2021/12/06 03:23:56;;;;;;;;;4.75;4.00;;;;;;;;5058017;28;45524;-84
2021/12/06 03:26:22;;;;;;;;;8.00;7.50;;;;;;;;5057635;28;45269;-84
2021/12/06 03:28:47;;;;;;;;;6.75;5.50;;;;;;;;5057321;28;46331;-84
2021/12/06 03:31:13;;;;;;;;;7.50;6.00;;;;;;;;5057740;28;45307;-84
2021/12/06 03:33:39;;;;;;;;;4.75;3.75;;;;;;;;5059003;28;45474;-84
2021/12/06 03:36:06;;;;;;;;;8.75;7.50;;;;;;;;5057721;28;45565;-84
2021/12/06 03:38:32;;;;;;;;;6.25;3.00;;;;;;;;5057192;28;47954;-84
2021/12/06 03:40:57;;;;;;;;;6.50;6.50;;;;;;;;5057403;28;45448;-84
2021/12/06 03:43:22;;;;;;;;;10.75;9.25;;;;;;;;5057194;28;45182;-84
2021/12/06 03:45:48;;;;;;;;;6.50;4.75;;;;;;;;5058873;28;45217;-84
2021/12/06 03:48:13;;;;;;;;;8.25;8.25;;;;;;;;5060246;28;46304;-84
2021/12/06 03:50:38;;;;;;;;;6.25;5.00;;;;;;;;5050200;28;45398;-84
2021/12/06 03:53:04;;;;;;;;;5.00;4.00;;;;;;;;5046775;28;45330;-85
2021/12/06 03:55:29;;;;;;;;;7.75;7.25;;;;;;;;5059912;28;45624;-85
2021/12/06 03:57:54;;;;;;;;;5.75;5.00;;;;;;;;5056829;28;46607;-85
2021/12/06 04:00:19;;;;;;;;;4.25;4.25;;;;;;;;5056767;28;45497;-85
2021/12/06 04:02:45;;;;;;;;;5.75;5.75;;;;;;;;5055356;28;46279;-84
2021/12/06 04:05:10;;;;;;;;;4.00;3.50;;;;;;;;5057564;28;45307;-84
2021/12/06 04:07:35;;;;;;;;;6.75;6.75;;;;;;;;5057569;28;46161;-84
2021/12/06 04:10:01;;;;;;;;;6.75;5.50;;;;;;;;5058516;28;45489;-84
2021/12/06 04:12:26;;;;;;;;;10.00;9.75;;;;;;;;5055817;28;45351;-85
2021/12/06 04:14:51;;;;;;;;;10.00;7.00;;;;;;;;5056021;28;45412;-85
2021/12/06 04:17:17;;;;;;;;;9.75;8.50;;;;;;;;5055693;28;46305;-84
2021/12/06 04:19:43;;;;;;;;;9.75;7.25;;;;;;;;5055911;28;45363;-84
2021/12/06 04:22:08;;;;;;;;;6.75;6.75;;;;;;;;5055706;28;45421;-85
2021/12/06 04:24:34;;;;;;;;;8.25;5.75;;;;;;;;5042599;28;45419;-85
2021/12/06 04:27:02;;;;;;;;;6.50;6.50;;;;;;;;5052986;28;46149;-84
2021/12/06 04:29:27;;;;;;;;;9.00;7.00;;;;;;;;5054277;28;45493;-85
2021/12/06 04:31:53;;;;;;;;;6.75;6.75;;;;;;;;5055289;28;45408;-85
2021/12/06 04:34:20;;;;;;;;;9.25;8.50;;;;;;;;5056000;28;45374;-85
2021/12/06 04:36:46;;;;;;;;;7.50;7.50;;;;;;;;5055163;28;46280;-85
2021/12/06 04:39:15;;;;;;;;;10.25;7.50;;;;;;;;5043926;28;45315;-84
2021/12/06 04:41:41;;;;;;;;;10.75;10.75;;;;;;;;5048611;28;45279;-84
2021/12/06 04:44:06;;;;;;;;;9.00;9.00;;;;;;;;5055102;28;45395;-84
2021/12/06 04:46:31;;;;;;;;;9.75;8.00;;;;;;;;5055026;28;45442;-85
2021/12/06 04:48:57;;;;;;;;;10.00;9.25;;;;;;;;5056742;28;45384;-85
2021/12/06 04:51:22;;;;;;;;;10.00;7.75;;;;;;;;5054896;28;45350;-85
2021/12/06 04:53:48;;;;;;;;;10.75;10.75;;;;;;;;5055326;28;45459;-85
2021/12/06 04:56:17;;;;;;;;;6.75;6.75;;;;;;;;5057549;28;45554;-85
2021/12/06 04:58:54;;;;;;;;;11.25;10.25;;;;;;;;5054716;28;45331;-85
2021/12/06 05:01:21;;;;;;;;;11.50;9.25;;;;;;;;5056489;28;45461;-83
2021/12/06 05:03:47;;;;;;;;;7.25;7.25;;;;;;;;5057312;28;45285;-83
2021/12/06 05:06:17;;;;;;;;;3.50;3.00;;;;;;;;5056257;28;45547;-83
2021/12/06 05:08:45;;;;;;;;;8.75;8.00;;;;;;;;5054167;28;45400;-81
2021/12/06 05:11:10;;;;;;;;;9.00;7.00;;;;;;;;5053269;28;45248;-86
2021/12/06 05:13:37;;;;;;;;;7.25;7.00;;;;;;;;5048920;28;45514;-85
2021/12/06 05:16:02;;;;;;;;;10.25;9.00;;;;;;;;5058266;28;45402;-84
2021/12/06 05:18:28;;;;;;;;;11.00;11.00;;;;;;;;5055321;28;45259;-84
2021/12/06 05:20:53;;;;;;;;;10.00;9.50;;;;;;;;5055561;28;45449;-85
2021/12/06 05:23:19;;;;;;;;;8.25;8.25;;;;;;;;5051078;28;45414;-86
2021/12/06 05:25:44;;;;;;;;;6.75;6.00;;;;;;;;5050292;28;46058;-86
2021/12/06 05:28:09;;;;;;;;;13.00;13.00;;;;;;;;5046131;28;45280;-84
2021/12/06 05:30:37;;;;;;;;;8.50;8.50;;;;;;;;5057328;28;45232;-81
2021/12/06 05:33:02;;;;;;;;;10.75;10.75;;;;;;;;5058026;28;45494;-82
2021/12/06 05:35:28;;;;;;;;;10.50;8.00;;;;;;;;5057010;28;45370;-83
2021/12/06 05:37:57;;;;;;;;;12.50;9.25;;;;;;;;5057789;28;45421;-83
2021/12/06 05:40:25;;;;;;;;;25.25;22.25;;;;;;;;5059546;28;45244;-83
2021/12/06 05:42:50;;;;;;;;;14.75;12.00;;;;;;;;5058687;27;45212;-83
2021/12/06 05:45:17;;;;;;;;;18.75;17.00;;;;;;;;5057847;28;46290;-82
2021/12/06 05:47:43;;;;;;;;;14.75;12.50;;;;;;;;5058706;28;45338;-84
2021/12/06 05:50:08;;;;;;;;;10.50;10.00;;;;;;;;5065374;28;45347;-83
2021/12/06 05:52:34;;;;;;;;;12.25;9.75;;;;;;;;5063499;28;45387;-83
2021/12/06 05:54:59;;;;;;;;;23.25;23.00;;;;;;;;5064950;28;45338;-83
2021/12/06 05:57:24;;;;;;;;;19.00;14.75;;;;;;;;5059003;28;45471;-80
2021/12/06 05:59:50;;;;;;;;;20.75;17.50;;;;;;;;5057141;28;45305;-81
2021/12/06 06:02:16;;;;;;;;;15.50;13.00;;;;;;;;5057572;28;45344;-81
2021/12/06 06:04:41;;;;;;;;;17.25;13.25;;;;;;;;5057826;28;45273;-82
2021/12/06 06:07:07;;;;;;;;;11.75;11.25;;;;;;;;5058001;28;45306;-82
2021/12/06 06:09:32;;;;;;;;;10.50;9.00;;;;;;;;5057383;28;45268;-82
2021/12/06 06:11:59;;;;;;;;;11.75;11.50;;;;;;;;5060909;28;45326;-82
2021/12/06 06:14:24;;;;;;;;;9.50;8.00;;;;;;;;5062050;28;47384;-83
2021/12/06 06:16:52;;;;;;;;;14.00;14.00;;;;;;;;5044724;28;45351;-82
2021/12/06 06:19:19;;;;;;;;;16.50;14.00;;;;;;;;5056147;28;46093;-82
2021/12/06 06:21:45;;;;;;;;;10.50;9.25;;;;;;;;5057831;28;45340;-81
2021/12/06 06:24:10;;;;;;;;;19.75;13.00;;;;;;;;5055683;28;47167;-80
2021/12/06 06:26:36;;;;;;;;;12.75;12.00;;;;;;;;5056535;28;45448;-81
2021/12/06 06:29:01;;;;;;;;;14.25;12.25;;;;;;;;5056070;28;45248;-83
2021/12/06 06:31:26;;;;;;;;;6.75;6.75;;;;;;;;5055077;28;45411;-82
2021/12/06 06:33:51;;;;;;;;;10.00;9.00;;;;;;;;5056857;28;46625;-81
2021/12/06 06:36:17;;;;;;;;;10.25;7.25;;;;;;;;5055243;28;45381;-83
2021/12/06 06:38:42;;;;;;;;;8.50;8.50;;;;;;;;5058414;28;45333;-85
2021/12/06 06:41:07;;;;;;;;;10.75;9.50;;;;;;;;5060601;28;45191;-86
2021/12/06 06:43:35;;;;;;;;;11.00;11.00;;;;;;;;5063060;28;46253;-86
2021/12/06 06:46:00;;;;;;;;;11.50;10.25;;;;;;;;5064822;28;45357;-87
2021/12/06 06:48:25;;;;;;;;;10.75;9.50;;;;;;;;5054331;28;45407;-86
2021/12/06 06:50:50;;;;;;;;;10.75;9.75;;;;;;;;5056702;28;45489;-87
2021/12/06 06:53:15;;;;;;;;;10.25;9.25;;;;;;;;5057896;28;46364;-86
2021/12/06 06:55:41;;;;;;;;;15.50;14.75;;;;;;;;5057966;28;45360;-85
2021/12/06 06:58:06;;;;;;;;;16.50;13.00;;;;;;;;5056457;28;45556;-86
2021/12/06 07:00:34;;;;;;;;;10.00;10.00;;;;;;;;5054490;28;45445;-86
2021/12/06 07:02:59;;;;;;;;;12.50;10.25;;;;;;;;5056280;28;45506;-85
2021/12/06 07:05:24;;;;;;;;;10.00;9.75;;;;;;;;5057436;28;45483;-86
2021/12/06 07:07:50;;;;;;;;;10.00;10.00;;;;;;;;5058811;28;45323;-86
2021/12/06 07:10:15;;;;;;;;;17.00;13.50;;;;;;;;5057428;28;45424;-85
2021/12/06 07:12:46;;;;;;;;;10.75;9.75;;;;;;;;5057731;28;45304;-86
2021/12/06 07:15:13;;;;;;;;;14.50;10.75;;;;;;;;5051912;28;45573;-86
2021/12/06 07:17:39;;;;;;;;;10.25;9.00;;;;;;;;5047992;28;45773;-86
2021/12/06 07:20:04;;;;;;;;;13.25;11.00;;;;;;;;5047676;28;45560;-85
2021/12/06 07:22:30;;;;;;;;;18.00;12.00;;;;;;;;5057270;28;46376;-87
2021/12/06 07:24:55;;;;;;;;;18.50;16.00;;;;;;;;5050398;28;45360;-85
2021/12/06 07:27:20;;;;;;;;;10.00;8.75;;;;;;;;5055474;28;45383;-87
2021/12/06 07:29:46;;;;;;;;;12.50;10.50;;;;;;;;5053620;28;47613;-87
2021/12/06 07:32:11;;;;;;;;;12.75;10.25;;;;;;;;5055459;28;45986;-86
2021/12/06 07:34:36;;;;;;;;;10.50;9.75;;;;;;;;5065174;28;45553;-86
2021/12/06 07:37:03;;;;;;;;;9.00;8.50;;;;;;;;5054451;28;45425;-86
2021/12/06 07:39:28;;;;;;;;;9.50;9.50;;;;;;;;5058479;28;45655;-84
2021/12/06 07:41:53;;;;;;;;;12.75;10.75;;;;;;;;5055877;28;46309;-86
2021/12/06 07:44:19;;;;;;;;;13.50;13.25;;;;;;;;5053682;28;45312;-87
2021/12/06 07:46:46;;;;;;;;;16.00;12.75;;;;;;;;5055607;28;45381;-87
2021/12/06 07:49:11;;;;;;;;;16.75;14.50;;;;;;;;5058569;28;45857;-87
2021/12/06 07:51:37;;;;;;;;;15.75;15.00;;;;;;;;5060217;28;45391;-86
2021/12/06 07:54:02;;;;;;;;;23.00;20.75;;;;;;;;5059969;28;45480;-85
2021/12/06 07:56:27;;;;;;;;;18.50;17.50;;;;;;;;5060352;28;45384;-86
2021/12/06 07:58:52;;;;;;;;;15.00;14.00;;;;;;;;5064054;28;45369;-86
2021/12/06 08:01:18;;;;;;;;;22.75;18.25;;;;;;;;5062603;28;47797;-87
2021/12/06 08:03:43;;;;;;;;;21.50;19.50;;;;;;;;5064372;28;45412;-87
2021/12/06 08:06:09;;;;;;;;;19.25;14.00;;;;;;;;5060824;28;47603;-87
2021/12/06 08:08:37;;;;;;;;;13.25;13.25;;;;;;;;5065426;28;45291;-87
2021/12/06 08:11:12;;;;;;;;;14.25;14.00;;;;;;;;5069660;28;46442;-87
2021/12/06 08:13:39;;;;;;;;;14.50;13.50;;;;;;;;5079286;28;44783;-86
2021/12/06 08:16:06;;;;;;;;;16.50;15.75;;;;;;;;5080412;27;44958;-82
2021/12/06 08:18:32;;;;;;;;;16.00;12.00;;;;;;;;5067785;28;45396;-84
2021/12/06 08:20:57;;;;;;;;;10.00;9.00;;;;;;;;5072968;28;45159;-83
2021/12/06 08:23:23;;;;;;;;;15.75;12.50;;;;;;;;5068517;28;45576;-82
2021/12/06 08:25:49;;;;;;;;;16.25;12.00;;;;;;;;5072700;28;45252;-83
2021/12/06 08:28:15;;;;;;;;;14.00;10.00;;;;;;;;5056093;28;45324;-83
2021/12/06 08:30:41;;;;;;;;;24.25;22.75;;;;;;;;5071585;28;46178;-82
2021/12/06 08:33:07;;;;;;;;;14.00;13.00;;;;;;;;5064890;28;45185;-81
2021/12/06 08:35:33;;;;;;;;;16.75;15.25;;;;;;;;5068565;28;45220;-82
2021/12/06 08:37:59;;;;;;;;;25.00;16.00;;;;;;;;5058944;28;45414;-82
2021/12/06 08:40:25;;;;;;;;;22.00;14.50;;;;;;;;5070579;28;46239;-81
2021/12/06 08:42:50;;;;;;;;;20.00;17.50;;;;;;;;5059563;28;46011;-81
2021/12/06 08:45:16;;;;;;;;;32.00;26.00;;;;;;;;5060860;28;45833;-82
2021/12/06 08:47:42;;;;;;;;;15.50;12.00;;;;;;;;5053793;28;45227;-83
2021/12/06 08:50:09;;;;;;;;;19.50;19.00;;;;;;;;5054851;28;46053;-81
2021/12/06 08:52:34;;;;;;;;;19.75;18.00;;;;;;;;5055169;28;45538;-81
2021/12/06 08:55:00;;;;;;;;;22.50;19.00;;;;;;;;5052948;28;45236;-82
2021/12/06 08:57:25;;;;;;;;;21.25;17.00;;;;;;;;5055123;28;45523;-81
2021/12/06 08:59:52;;;;;;;;;18.75;14.25;;;;;;;;5054965;28;46110;-82
2021/12/06 09:02:17;;;;;;;;;13.75;13.75;;;;;;;;5054338;28;45343;-81
2021/12/06 09:04:44;;;;;;;;;16.75;15.25;;;;;;;;5054790;28;45376;-82
2021/12/06 09:07:12;;;;;;;;;15.75;13.00;;;;;;;;5054823;28;45458;-81
2021/12/06 09:09:46;;;;;;;;;15.75;15.25;;;;;;;;5053005;28;47308;-82
2021/12/06 09:12:13;;;;;;;;;15.00;13.75;;;;;;;;5056546;28;45312;-82
2021/12/06 09:14:39;;;;;;;;;15.00;14.00;;;;;;;;5054287;28;45570;-82
2021/12/06 09:17:04;;;;;;;;;16.50;12.75;;;;;;;;5054844;28;45477;-82
2021/12/06 09:19:29;;;;;;;;;18.50;16.00;;;;;;;;5055385;28;45363;-82
2021/12/06 09:21:54;;;;;;;;;21.00;19.75;;;;;;;;5053597;28;45746;-81
2021/12/06 09:24:20;;;;;;;;;18.50;13.00;;;;;;;;5051022;28;45450;-85
2021/12/06 09:26:46;;;;;;;;;20.75;17.00;;;;;;;;5050594;28;45452;-85
2021/12/06 09:29:12;;;;;;;;;16.75;14.75;;;;;;;;5055548;28;46143;-84
2021/12/06 09:31:37;;;;;;;;;13.50;10.50;;;;;;;;5055865;28;45546;-85
2021/12/06 09:34:03;;;;;;;;;12.50;7.75;;;;;;;;5056334;28;45457;-86
2021/12/06 09:36:28;;;;;;;;;20.75;18.00;;;;;;;;5054983;28;45478;-86
2021/12/06 09:38:54;;;;;;;;;11.50;11.50;;;;;;;;5056649;28;46036;-85
2021/12/06 09:41:23;;;;;;;;;13.25;13.25;;;;;;;;5056449;28;45492;-84
2021/12/06 09:43:50;;;;;;;;;12.75;11.50;;;;;;;;5057257;28;45442;-86
2021/12/06 09:46:15;;;;;;;;;9.00;8.00;;;;;;;;5054744;28;45620;-84
2021/12/06 09:48:41;;;;;;;;;16.00;12.75;;;;;;;;5056242;28;46217;-86
2021/12/06 09:51:10;;;;;;;;;12.25;12.25;;;;;;;;5053616;28;45413;-86
2021/12/06 09:53:36;;;;;;;;;13.25;13.25;;;;;;;;5057192;28;45320;-86
2021/12/06 09:56:04;;;;;;;;;12.00;7.00;;;;;;;;5059904;28;45327;-85
2021/12/06 09:58:30;;;;;;;;;10.75;10.50;;;;;;;;5054584;28;47143;-85
2021/12/06 10:01:00;;;;;;;;;8.00;8.00;;;;;;;;5057816;28;45264;-86
2021/12/06 10:03:29;;;;;;;;;15.50;12.75;;;;;;;;5059023;28;45295;-86
2021/12/06 10:06:01;;;;;;;;;16.25;14.75;;;;;;;;5053565;28;45330;-86
2021/12/06 10:08:26;;;;;;;;;14.25;11.00;;;;;;;;5058287;28;45699;-86
2021/12/06 10:10:52;;;;;;;;;13.75;13.00;;;;;;;;5058223;28;45392;-86
2021/12/06 10:13:17;;;;;;;;;15.25;12.75;;;;;;;;5060793;28;45364;-87
2021/12/06 10:15:43;;;;;;;;;15.50;11.75;;;;;;;;5078174;28;45275;-86
2021/12/06 10:18:10;;;;;;;;;8.50;6.75;;;;;;;;5075376;28;45391;-86
2021/12/06 10:20:35;;;;;;;;;8.50;8.00;;;;;;;;5060105;28;45505;-85
2021/12/06 10:23:01;;;;;;;;;8.25;8.25;;;;;;;;5058444;28;45386;-86
2021/12/06 10:25:37;;;;;;;;;14.25;10.25;;;;;;;;5057182;28;45463;-85
2021/12/06 10:28:04;;;;;;;;;10.00;8.00;;;;;;;;5059125;28;46226;-86
2021/12/06 10:30:30;;;;;;;;;9.00;8.25;;;;;;;;5050143;28;45791;-77
2021/12/06 10:33:04;;;;;;;;;13.25;10.25;;;;;;;;5056475;28;45397;-82
2021/12/06 10:35:29;;;;;;;;;13.75;11.00;;;;;;;;5055945;28;45485;-83
2021/12/06 10:37:56;;;;;;;;;10.50;8.00;;;;;;;;5056860;28;46596;-82
2021/12/06 10:40:23;;;;;;;;;13.25;9.75;;;;;;;;5055638;28;45504;-82
2021/12/06 10:42:49;;;;;;;;;15.25;14.00;;;;;;;;5057076;28;45401;-83
2021/12/06 10:45:16;;;;;;;;;11.75;10.00;;;;;;;;5057070;28;45455;-82
2021/12/06 10:47:41;;;;;;;;;9.25;9.25;;;;;;;;5055298;28;46225;-80
2021/12/06 10:50:10;;;;;;;;;11.25;9.75;;;;;;;;5059645;28;45319;-82
2021/12/06 10:52:35;;;;;;;;;9.75;9.00;;;;;;;;5057944;28;45311;-82
2021/12/06 10:55:00;;;;;;;;;11.25;11.25;;;;;;;;5054111;28;45561;-81
2021/12/06 10:57:44;;;;;;;;;8.00;8.00;;;;;;;;5055628;28;46734;-82
2021/12/06 11:00:25;;;;;;;;;10.50;8.00;;;;;;;;5055752;28;45300;-81
2021/12/06 11:02:51;;;;;;;;;12.75;11.75;;;;;;;;5056424;28;45311;-81
2021/12/06 11:05:23;;;;;;;;;11.50;8.50;;;;;;;;5056588;28;45244;-81
2021/12/06 11:07:55;;;;;;;;;15.25;10.00;;;;;;;;5055682;27;47159;-82
2021/12/06 11:10:24;;;;;;;;;15.50;14.25;;;;;;;;5055611;28;45418;-81
2021/12/06 11:13:09;;;;;;;;;13.75;12.50;;;;;;;;5056112;28;45429;-83
2021/12/06 11:15:34;;;;;;;;;12.50;11.75;;;;;;;;5054984;28;45438;-82
2021/12/06 11:18:00;;;;;;;;;13.00;11.25;;;;;;;;5056233;28;46272;-82
2021/12/06 11:20:25;;;;;;;;;15.75;12.50;;;;;;;;5055584;28;45317;-83
2021/12/06 11:22:51;;;;;;;;;10.50;10.50;;;;;;;;5055826;28;45261;-82
2021/12/06 11:25:16;;;;;;;;;13.25;9.00;;;;;;;;5056887;28;45189;-83
2021/12/06 11:27:42;;;;;;;;;11.00;9.50;;;;;;;;5055796;28;46041;-81
2021/12/06 11:30:11;;;;;;;;;11.50;9.00;;;;;;;;5051372;28;45443;-82
2021/12/06 11:32:41;;;;;;;;;12.75;10.25;;;;;;;;5054634;28;45524;-81
2021/12/06 11:35:06;;;;;;;;;20.25;14.25;;;;;;;;5055714;28;45527;-82
2021/12/06 11:37:34;;;;;;;;;14.00;12.00;;;;;;;;5056244;28;45439;-81
2021/12/06 11:40:08;;;;;;;;;13.75;13.75;;;;;;;;5057290;28;45696;-83
2021/12/06 11:42:46;;;;;;;;;10.00;10.00;;;;;;;;5055803;28;45276;-82
2021/12/06 11:45:11;;;;;;;;;12.00;9.75;;;;;;;;5055855;28;45410;-82
2021/12/06 11:47:36;;;;;;;;;13.25;11.00;;;;;;;;5054843;28;47067;-82
2021/12/06 11:50:03;;;;;;;;;14.00;13.75;;;;;;;;5054011;28;45432;-80
2021/12/06 11:52:30;;;;;;;;;13.75;11.00;;;;;;;;5039026;28;45464;-82
2021/12/06 11:54:57;;;;;;;;;30.00;25.00;;;;;;;;5056525;28;45434;-82
2021/12/06 11:57:26;;;;;;;;;13.75;13.75;;;;;;;;5054223;28;46151;-83
2021/12/06 11:59:53;;;;;;;;;20.50;16.00;;;;;;;;5054642;28;45482;-82
2021/12/06 12:02:30;;;;;;;;;6.50;6.50;;;;;;;;5054722;28;45359;-82
2021/12/06 12:05:30;;;;;;;;;5.25;5.00;;;;;;;;5054667;28;46715;-82
2021/12/06 12:07:57;;;;;;;;;13.75;10.50;;;;;;;;4987741;28;46390;-81
2021/12/06 12:10:27;;;;;;;;;11.25;8.25;;;;;;;;4991023;28;45398;-83
2021/12/06 12:12:52;;;;;;;;;11.50;8.50;;;;;;;;4963277;28;45264;-82
2021/12/06 12:15:18;;;;;;;;;13.50;11.75;;;;;;;;4993409;28;45358;-81
2021/12/06 12:17:46;;;;;;;;;10.25;10.25;;;;;;;;4991443;28;45482;-82
2021/12/06 12:20:11;;;;;;;;;9.00;6.00;;;;;;;;4990812;28;45375;-82
2021/12/06 12:22:38;;;;;;;;;9.50;9.50;;;;;;;;4990083;28;45525;-83
2021/12/06 12:25:09;;;;;;;;;7.00;7.00;;;;;;;;4974652;28;45474;-82
2021/12/06 12:30:03;;;;;;;;;9.75;8.50;;;;;;;;4984755;28;45427;-82
2021/12/06 12:32:29;;;;;;;;;11.75;9.50;;;;;;;;4982662;28;45532;-81
2021/12/06 12:34:57;;;;;;;;;8.50;8.00;;;;;;;;4987194;28;45375;-83
2021/12/06 12:37:23;;;;;;;;;9.75;8.00;;;;;;;;4990877;28;46381;-82
2021/12/06 12:39:58;;;;;;;;;12.25;9.25;;;;;;;;4988512;28;45296;-81
2021/12/06 12:42:23;;;;;;;;;12.50;8.50;;;;;;;;5019190;28;45375;-81
2021/12/06 12:44:50;;;;;;;;;13.00;10.75;;;;;;;;5049544;28;45467;-81
2021/12/06 12:47:20;;;;;;;;;7.25;6.75;;;;;;;;5054203;28;46226;-82
2021/12/06 12:49:47;;;;;;;;;5.00;4.00;;;;;;;;5053507;28;45441;-81
2021/12/06 12:52:13;;;;;;;;;7.00;5.75;;;;;;;;5053920;28;45358;-83
2021/12/06 12:54:41;;;;;;;;;9.75;9.00;;;;;;;;5052400;28;45224;-81
2021/12/06 12:57:14;;;;;;;;;5.00;5.00;;;;;;;;5054562;28;45445;-83
2021/12/06 12:59:48;;;;;;;;;6.00;6.00;;;;;;;;5053891;28;45181;-83
2021/12/06 13:02:19;;;;;;;;;7.75;4.50;;;;;;;;5053864;28;45339;-82
2021/12/06 13:04:59;;;;;;;;;5.00;4.00;;;;;;;;5053808;28;45545;-82
2021/12/06 13:07:26;;;;;;;;;5.50;5.00;;;;;;;;5054532;28;47204;-82
2021/12/06 13:09:52;;;;;;;;;4.50;4.25;;;;;;;;5054214;28;45253;-82
2021/12/06 13:12:17;;;;;;;;;8.50;8.50;;;;;;;;5053998;28;45368;-82
2021/12/06 13:14:59;;;;;;;;;5.75;5.00;;;;;;;;5053972;28;45284;-82
2021/12/06 13:17:30;;;;;;;;;7.00;6.75;;;;;;;;5055114;28;46931;-82
2021/12/06 13:20:08;;;;;;;;;5.50;5.00;;;;;;;;5055487;28;45866;-81
2021/12/06 13:22:44;;;;;;;;;8.75;6.25;;;;;;;;5037605;28;45451;-82
2021/12/06 13:25:10;;;;;;;;;3.25;2.50;;;;;;;;5054426;28;45316;-82
2021/12/06 13:27:38;;;;;;;;;4.00;4.00;;;;;;;;5054709;28;46640;-83
2021/12/06 13:30:10;;;;;;;;;1.75;1.50;;;;;;;;5054122;28;45398;-82
2021/12/06 13:32:35;;;;;;;;;4.00;4.00;;;;;;;;5053553;28;45264;-82
2021/12/06 13:35:18;;;;;;;;;4.00;4.00;;;;;;;;5053700;28;45369;-82
2021/12/06 13:37:58;;;;;;;;;8.75;7.00;;;;;;;;5043316;28;45456;-81
2021/12/06 13:40:23;;;;;;;;;5.50;4.75;;;;;;;;5057156;28;45442;-82
2021/12/06 13:42:48;;;;;;;;;5.75;5.25;;;;;;;;5058151;28;45396;-82
2021/12/06 13:45:21;;;;;;;;;4.00;4.00;;;;;;;;5057147;28;45434;-82
2021/12/06 13:48:06;;;;;;;;;4.50;3.00;;;;;;;;5056230;28;46099;-81
2021/12/06 13:50:31;;;;;;;;;7.50;5.75;;;;;;;;5056928;27;45316;-82
2021/12/06 13:52:56;;;;;;;;;11.00;4.75;;;;;;;;5056872;28;45318;-81
2021/12/06 13:55:37;;;;;;;;;7.00;4.00;;;;;;;;5057259;28;45606;-81
2021/12/06 13:58:07;;;;;;;;;5.00;2.00;;;;;;;;5037681;28;46294;-82
2021/12/06 14:00:42;;;;;;;;;4.75;4.50;;;;;;;;5057575;28;45335;-82
2021/12/06 14:03:12;;;;;;;;;7.25;5.25;;;;;;;;5058024;28;45472;-82
2021/12/06 14:05:39;;;;;;;;;10.00;5.00;;;;;;;;5060482;28;45347;-83
2021/12/06 14:08:04;;;;;;;;;5.00;4.00;;;;;;;;5057889;28;46559;-82
2021/12/06 14:10:32;;;;;;;;;4.75;3.25;;;;;;;;5057186;28;45198;-82
2021/12/06 14:12:57;;;;;;;;;5.25;5.25;;;;;;;;5053766;28;45467;-82
2021/12/06 14:15:36;;;;;;;;;6.00;4.25;;;;;;;;5057003;28;45610;-81
2021/12/06 14:18:02;;;;;;;;;4.00;3.00;;;;;;;;5060706;28;45976;-81
2021/12/06 14:20:27;;;;;;;;;4.00;2.00;;;;;;;;5056987;28;45254;-79
2021/12/06 14:22:54;;;;;;;;;4.25;4.00;;;;;;;;5056782;28;45386;-82
2021/12/06 14:25:20;;;;;;;;;2.00;2.00;;;;;;;;5060235;28;45182;-82
2021/12/06 14:27:46;;;;;;;;;7.75;4.50;;;;;;;;5057049;28;46227;-83
2021/12/06 14:30:13;;;;;;;;;3.25;3.25;;;;;;;;5054771;28;45379;-82
2021/12/06 14:32:44;;;;;;;;;3.75;2.00;;;;;;;;5055586;28;45390;-80
2021/12/06 14:35:09;;;;;;;;;3.25;3.25;;;;;;;;5056472;28;45470;-82
2021/12/06 14:37:34;;;;;;;;;4.50;3.25;;;;;;;;5059539;28;45291;-80
2021/12/06 14:40:00;;;;;;;;;2.50;2.25;;;;;;;;5058074;28;45315;-82
2021/12/06 14:42:26;;;;;;;;;4.00;4.00;;;;;;;;5056396;28;45375;-82